aviador You're here:

PAPH Decoded Metar

PORT HEIDEN in AK, USA
Report Time2018-02-18 16:56:00
UTC Time2018-02-18 17:57:58
Flight Rules vfr VFR
Wind180° at 07 kt
W.Decomp.*RWY 13: 5.8 kt HW 3.9 kt RCW
RWY 23: 2.8 kt HW 6.4 kt LCW
W.Rank180° ranks 29
Current wind is below 180° avg. (7.2)
Visibility9999 m
Phenomena:N/A
Clouds:Overcast 048 Hf
Expected CloudBase > 400 ft AGL from Temp-Dew spread
Ceiling4,800 ft
Temp02°C (ISA -13)
Dew Point01°C (93% RH)
AAT-2.4°C
QNH1027 hPa
Density Alt-1,850 ft
Elevation95 ft
Report Wrong Elevation
Raw Report
PAPH 181656Z AUTO 18007KT 10SM OVC048 02/01 A3033 RMK AO2 RAE04
SLP272 P0000 T00170011 FZRANO=

Extra information for PAPH:More info

Metar Taf Metar & Taf Last 4 Metars F.Rules Stats Wind Profile Meteogram Temp Stats Airport Information Weather charts Add Link Nearby VenuesMetar ALERT Operation Metar Decoded Social comments

AIRNAV info for PAPH